sensor_id;sensor_type;location;lat;lon;timestamp;temperature;humidity
3001;DHT22;1510;51.072;6.678;2023-04-25T00:01:01;4.70;99.90
3001;DHT22;1510;51.072;6.678;2023-04-25T00:03:29;4.60;99.90
3001;DHT22;1510;51.072;6.678;2023-04-25T00:05:56;4.60;99.90
3001;DHT22;1510;51.072;6.678;2023-04-25T00:08:24;4.60;99.90
3001;DHT22;1510;51.072;6.678;2023-04-25T00:10:51;4.50;99.90
3001;DHT22;1510;51.072;6.678;2023-04-25T00:13:18;4.50;99.90
3001;DHT22;1510;51.072;6.678;2023-04-25T00:15:46;4.50;99.90
3001;DHT22;1510;51.072;6.678;2023-04-25T00:18:13;4.50;99.90
3001;DHT22;1510;51.072;6.678;2023-04-25T00:20:41;4.30;99.90
3001;DHT22;1510;51.072;6.678;2023-04-25T00:23:12;4.30;99.90
3001;DHT22;1510;51.072;6.678;2023-04-25T00:25:43;4.30;99.90
3001;DHT22;1510;51.072;6.678;2023-04-25T00:28:09;4.30;99.90
3001;DHT22;1510;51.072;6.678;2023-04-25T00:30:36;4.40;99.90
3001;DHT22;1510;51.072;6.678;2023-04-25T00:33:05;4.50;99.90
3001;DHT22;1510;51.072;6.678;2023-04-25T00:35:32;4.60;99.90
3001;DHT22;1510;51.072;6.678;2023-04-25T00:37:59;4.80;99.90
3001;DHT22;1510;51.072;6.678;2023-04-25T00:40:27;4.80;99.90
3001;DHT22;1510;51.072;6.678;2023-04-25T00:42:54;5.00;99.90
3001;DHT22;1510;51.072;6.678;2023-04-25T00:45:21;4.90;99.90
3001;DHT22;1510;51.072;6.678;2023-04-25T00:47:47;5.00;99.90
3001;DHT22;1510;51.072;6.678;2023-04-25T00:50:18;4.90;99.90
3001;DHT22;1510;51.072;6.678;2023-04-25T00:52:45;5.00;99.90
3001;DHT22;1510;51.072;6.678;2023-04-25T00:55:12;5.00;99.90
3001;DHT22;1510;51.072;6.678;2023-04-25T00:57:39;5.10;99.90
3001;DHT22;1510;51.072;6.678;2023-04-25T01:00:08;5.10;99.90
3001;DHT22;1510;51.072;6.678;2023-04-25T01:02:36;5.30;99.90
3001;DHT22;1510;51.072;6.678;2023-04-25T01:05:04;5.20;99.90
3001;DHT22;1510;51.072;6.678;2023-04-25T01:07:33;5.30;99.90
3001;DHT22;1510;51.072;6.678;2023-04-25T01:10:01;5.30;99.90
3001;DHT22;1510;51.072;6.678;2023-04-25T01:12:28;5.40;99.90
3001;DHT22;1510;51.072;6.678;2023-04-25T01:14:55;5.40;99.90
3001;DHT22;1510;51.072;6.678;2023-04-25T01:17:22;5.30;99.90
3001;DHT22;1510;51.072;6.678;2023-04-25T01:19:49;5.20;99.90
3001;DHT22;1510;51.072;6.678;2023-04-25T01:22:18;5.30;99.90
3001;DHT22;1510;51.072;6.678;2023-04-25T01:24:46;5.20;99.90
3001;DHT22;1510;51.072;6.678;2023-04-25T01:27:13;5.30;99.90
3001;DHT22;1510;51.072;6.678;2023-04-25T01:29:40;5.30;99.90
3001;DHT22;1510;51.072;6.678;2023-04-25T01:32:08;5.30;99.90
3001;DHT22;1510;51.072;6.678;2023-04-25T01:34:36;5.40;99.90
3001;DHT22;1510;51.072;6.678;2023-04-25T01:37:03;5.30;99.90
3001;DHT22;1510;51.072;6.678;2023-04-25T01:39:31;5.40;99.90
3001;DHT22;1510;51.072;6.678;2023-04-25T01:41:59;5.50;99.90
3001;DHT22;1510;51.072;6.678;2023-04-25T01:44:27;5.50;99.90
3001;DHT22;1510;51.072;6.678;2023-04-25T01:46:54;5.60;99.90
3001;DHT22;1510;51.072;6.678;2023-04-25T01:49:21;5.60;99.90
3001;DHT22;1510;51.072;6.678;2023-04-25T01:51:49;5.70;99.90
3001;DHT22;1510;51.072;6.678;2023-04-25T01:54:17;5.70;99.90
3001;DHT22;1510;51.072;6.678;2023-04-25T01:56:50;5.70;99.90
3001;DHT22;1510;51.072;6.678;2023-04-25T01:59:18;5.80;99.90
3001;DHT22;1510;51.072;6.678;2023-04-25T02:01:47;5.80;99.90
3001;DHT22;1510;51.072;6.678;2023-04-25T02:04:14;5.80;99.90
3001;DHT22;1510;51.072;6.678;2023-04-25T02:06:40;5.80;99.90
3001;DHT22;1510;51.072;6.678;2023-04-25T02:09:07;5.80;99.90
3001;DHT22;1510;51.072;6.678;2023-04-25T02:11:34;5.90;99.90
3001;DHT22;1510;51.072;6.678;2023-04-25T02:14:04;5.90;99.90
3001;DHT22;1510;51.072;6.678;2023-04-25T02:16:31;5.90;99.90
3001;DHT22;1510;51.072;6.678;2023-04-25T02:19:01;5.90;99.90
3001;DHT22;1510;51.072;6.678;2023-04-25T02:21:28;5.80;99.90
3001;DHT22;1510;51.072;6.678;2023-04-25T02:23:56;5.90;99.90
3001;DHT22;1510;51.072;6.678;2023-04-25T02:26:23;5.80;99.90
3001;DHT22;1510;51.072;6.678;2023-04-25T02:28:50;5.80;99.90
3001;DHT22;1510;51.072;6.678;2023-04-25T02:31:19;5.80;99.90
3001;DHT22;1510;51.072;6.678;2023-04-25T02:33:46;5.80;99.90
3001;DHT22;1510;51.072;6.678;2023-04-25T02:36:15;5.80;99.90
3001;DHT22;1510;51.072;6.678;2023-04-25T02:38:42;5.70;99.90
3001;DHT22;1510;51.072;6.678;2023-04-25T02:41:09;5.60;99.90
3001;DHT22;1510;51.072;6.678;2023-04-25T02:43:38;5.70;99.90
3001;DHT22;1510;51.072;6.678;2023-04-25T02:46:05;5.60;99.90
3001;DHT22;1510;51.072;6.678;2023-04-25T02:48:34;5.60;99.90
3001;DHT22;1510;51.072;6.678;2023-04-25T02:51:00;5.60;99.90
3001;DHT22;1510;51.072;6.678;2023-04-25T02:53:31;5.60;99.90
3001;DHT22;1510;51.072;6.678;2023-04-25T02:56:01;5.60;99.90
3001;DHT22;1510;51.072;6.678;2023-04-25T02:58:28;5.60;99.90
3001;DHT22;1510;51.072;6.678;2023-04-25T03:00:55;5.60;99.90
3001;DHT22;1510;51.072;6.678;2023-04-25T03:03:22;5.60;99.90
3001;DHT22;1510;51.072;6.678;2023-04-25T03:05:50;5.60;99.90
3001;DHT22;1510;51.072;6.678;2023-04-25T03:08:20;5.60;99.90
3001;DHT22;1510;51.072;6.678;2023-04-25T03:10:48;5.60;99.90
3001;DHT22;1510;51.072;6.678;2023-04-25T03:13:16;5.60;99.90
3001;DHT22;1510;51.072;6.678;2023-04-25T03:15:43;5.60;99.90
3001;DHT22;1510;51.072;6.678;2023-04-25T03:18:12;5.60;99.90
3001;DHT22;1510;51.072;6.678;2023-04-25T03:20:40;5.60;99.90
3001;DHT22;1510;51.072;6.678;2023-04-25T03:23:08;5.70;99.90
3001;DHT22;1510;51.072;6.678;2023-04-25T03:25:36;5.70;99.90
3001;DHT22;1510;51.072;6.678;2023-04-25T03:28:04;5.70;99.90
3001;DHT22;1510;51.072;6.678;2023-04-25T03:30:31;5.70;99.90
3001;DHT22;1510;51.072;6.678;2023-04-25T03:32:58;5.70;99.90
3001;DHT22;1510;51.072;6.678;2023-04-25T03:35:25;5.70;99.90
3001;DHT22;1510;51.072;6.678;2023-04-25T03:37:52;5.70;99.90
3001;DHT22;1510;51.072;6.678;2023-04-25T03:40:22;5.70;99.90
3001;DHT22;1510;51.072;6.678;2023-04-25T03:42:48;5.70;99.90
3001;DHT22;1510;51.072;6.678;2023-04-25T03:45:15;5.70;99.90
3001;DHT22;1510;51.072;6.678;2023-04-25T03:47:42;5.70;99.90
3001;DHT22;1510;51.072;6.678;2023-04-25T03:50:09;5.70;99.90
3001;DHT22;1510;51.072;6.678;2023-04-25T03:52:36;5.70;99.90
3001;DHT22;1510;51.072;6.678;2023-04-25T03:55:05;5.70;99.90
3001;DHT22;1510;51.072;6.678;2023-04-25T03:57:33;5.60;99.90
3001;DHT22;1510;51.072;6.678;2023-04-25T04:00:00;5.70;99.90
3001;DHT22;1510;51.072;6.678;2023-04-25T04:02:35;5.70;99.90
3001;DHT22;1510;51.072;6.678;2023-04-25T04:05:06;5.70;99.90
3001;DHT22;1510;51.072;6.678;2023-04-25T04:07:33;5.70;99.90
3001;DHT22;1510;51.072;6.678;2023-04-25T04:10:05;5.70;99.90
3001;DHT22;1510;51.072;6.678;2023-04-25T04:12:35;5.60;99.90
3001;DHT22;1510;51.072;6.678;2023-04-25T04:15:05;5.70;99.90
3001;DHT22;1510;51.072;6.678;2023-04-25T04:17:32;5.60;99.90
3001;DHT22;1510;51.072;6.678;2023-04-25T04:19:59;5.60;99.90
3001;DHT22;1510;51.072;6.678;2023-04-25T04:22:26;5.60;99.90
3001;DHT22;1510;51.072;6.678;2023-04-25T04:24:53;5.60;99.90
3001;DHT22;1510;51.072;6.678;2023-04-25T04:27:21;5.60;99.90
3001;DHT22;1510;51.072;6.678;2023-04-25T04:29:52;5.50;99.90
3001;DHT22;1510;51.072;6.678;2023-04-25T04:32:19;5.50;99.90
3001;DHT22;1510;51.072;6.678;2023-04-25T04:34:46;5.50;99.90
3001;DHT22;1510;51.072;6.678;2023-04-25T04:37:14;5.40;99.90
3001;DHT22;1510;51.072;6.678;2023-04-25T04:39:41;5.40;99.90
3001;DHT22;1510;51.072;6.678;2023-04-25T04:42:08;5.30;99.90
3001;DHT22;1510;51.072;6.678;2023-04-25T04:44:36;5.40;99.90
3001;DHT22;1510;51.072;6.678;2023-04-25T04:47:05;5.30;99.90
3001;DHT22;1510;51.072;6.678;2023-04-25T04:49:32;5.30;99.90
3001;DHT22;1510;51.072;6.678;2023-04-25T04:51:59;5.30;99.90
3001;DHT22;1510;51.072;6.678;2023-04-25T04:54:26;5.20;99.90
3001;DHT22;1510;51.072;6.678;2023-04-25T04:56:53;5.20;99.90
3001;DHT22;1510;51.072;6.678;2023-04-25T04:59:21;5.30;99.90
3001;DHT22;1510;51.072;6.678;2023-04-25T05:01:48;5.40;99.90
3001;DHT22;1510;51.072;6.678;2023-04-25T05:04:16;5.50;99.90
3001;DHT22;1510;51.072;6.678;2023-04-25T05:06:43;5.50;99.90
3001;DHT22;1510;51.072;6.678;2023-04-25T05:09:10;5.70;99.90
3001;DHT22;1510;51.072;6.678;2023-04-25T05:11:37;5.70;99.90
3001;DHT22;1510;51.072;6.678;2023-04-25T05:14:04;5.80;99.90
3001;DHT22;1510;51.072;6.678;2023-04-25T05:16:31;5.90;99.90
3001;DHT22;1510;51.072;6.678;2023-04-25T05:18:58;6.00;99.90
3001;DHT22;1510;51.072;6.678;2023-04-25T05:21:26;6.10;99.90
3001;DHT22;1510;51.072;6.678;2023-04-25T05:23:54;6.20;99.90
3001;DHT22;1510;51.072;6.678;2023-04-25T05:26:21;6.40;99.90
3001;DHT22;1510;51.072;6.678;2023-04-25T05:28:48;6.50;99.90
3001;DHT22;1510;51.072;6.678;2023-04-25T05:31:16;6.60;99.90
3001;DHT22;1510;51.072;6.678;2023-04-25T05:33:43;6.80;99.90
3001;DHT22;1510;51.072;6.678;2023-04-25T05:36:10;6.90;99.90
3001;DHT22;1510;51.072;6.678;2023-04-25T05:38:40;6.90;99.90
3001;DHT22;1510;51.072;6.678;2023-04-25T05:41:06;6.90;99.90
3001;DHT22;1510;51.072;6.678;2023-04-25T05:43:33;6.90;99.90
3001;DHT22;1510;51.072;6.678;2023-04-25T05:46:00;6.90;99.90
3001;DHT22;1510;51.072;6.678;2023-04-25T05:48:27;6.90;99.90
3001;DHT22;1510;51.072;6.678;2023-04-25T05:50:55;7.00;99.90
3001;DHT22;1510;51.072;6.678;2023-04-25T05:53:22;7.10;99.90
3001;DHT22;1510;51.072;6.678;2023-04-25T05:55:50;7.20;99.90
3001;DHT22;1510;51.072;6.678;2023-04-25T05:58:17;7.30;99.90
3001;DHT22;1510;51.072;6.678;2023-04-25T06:00:44;7.40;99.90
3001;DHT22;1510;51.072;6.678;2023-04-25T06:03:11;7.40;99.90
3001;DHT22;1510;51.072;6.678;2023-04-25T06:05:40;7.40;99.90
3001;DHT22;1510;51.072;6.678;2023-04-25T06:08:09;7.30;99.90
3001;DHT22;1510;51.072;6.678;2023-04-25T06:10:36;7.20;99.90
3001;DHT22;1510;51.072;6.678;2023-04-25T06:13:04;7.20;99.90
3001;DHT22;1510;51.072;6.678;2023-04-25T06:15:32;7.20;99.90
3001;DHT22;1510;51.072;6.678;2023-04-25T06:17:59;7.20;99.90
3001;DHT22;1510;51.072;6.678;2023-04-25T06:20:26;7.30;99.90
3001;DHT22;1510;51.072;6.678;2023-04-25T06:22:53;7.30;99.90
3001;DHT22;1510;51.072;6.678;2023-04-25T06:25:19;7.30;99.90
3001;DHT22;1510;51.072;6.678;2023-04-25T06:27:46;7.40;99.90
3001;DHT22;1510;51.072;6.678;2023-04-25T06:30:14;7.50;99.90
3001;DHT22;1510;51.072;6.678;2023-04-25T06:32:43;7.40;99.90
3001;DHT22;1510;51.072;6.678;2023-04-25T06:35:11;7.50;99.90
3001;DHT22;1510;51.072;6.678;2023-04-25T06:37:38;7.60;99.90
3001;DHT22;1510;51.072;6.678;2023-04-25T06:40:07;7.80;99.90
3001;DHT22;1510;51.072;6.678;2023-04-25T06:42:34;7.70;99.90
3001;DHT22;1510;51.072;6.678;2023-04-25T06:45:01;7.80;99.90
3001;DHT22;1510;51.072;6.678;2023-04-25T06:47:30;7.90;99.90
3001;DHT22;1510;51.072;6.678;2023-04-25T06:49:56;8.00;99.90
3001;DHT22;1510;51.072;6.678;2023-04-25T06:52:23;8.00;99.90
3001;DHT22;1510;51.072;6.678;2023-04-25T06:54:50;8.00;99.90
3001;DHT22;1510;51.072;6.678;2023-04-25T06:57:17;8.00;99.90
3001;DHT22;1510;51.072;6.678;2023-04-25T06:59:44;8.20;99.90
3001;DHT22;1510;51.072;6.678;2023-04-25T07:02:11;8.30;99.90
3001;DHT22;1510;51.072;6.678;2023-04-25T07:04:39;8.30;99.90
3001;DHT22;1510;51.072;6.678;2023-04-25T07:07:06;8.20;99.90
3001;DHT22;1510;51.072;6.678;2023-04-25T07:09:33;8.20;99.90
3001;DHT22;1510;51.072;6.678;2023-04-25T07:12:00;8.20;99.90
3001;DHT22;1510;51.072;6.678;2023-04-25T07:14:28;8.40;99.90
3001;DHT22;1510;51.072;6.678;2023-04-25T07:16:55;8.40;99.90
3001;DHT22;1510;51.072;6.678;2023-04-25T07:19:22;8.50;99.90
3001;DHT22;1510;51.072;6.678;2023-04-25T07:21:53;8.60;99.90
3001;DHT22;1510;51.072;6.678;2023-04-25T07:24:20;8.60;99.90
3001;DHT22;1510;51.072;6.678;2023-04-25T07:26:49;8.60;99.90
3001;DHT22;1510;51.072;6.678;2023-04-25T07:29:22;8.50;99.90
3001;DHT22;1510;51.072;6.678;2023-04-25T07:31:49;8.60;99.90
3001;DHT22;1510;51.072;6.678;2023-04-25T07:34:16;8.50;99.90
3001;DHT22;1510;51.072;6.678;2023-04-25T07:36:43;8.30;99.90
3001;DHT22;1510;51.072;6.678;2023-04-25T07:39:11;8.30;99.90
3001;DHT22;1510;51.072;6.678;2023-04-25T07:41:38;8.40;99.90
3001;DHT22;1510;51.072;6.678;2023-04-25T07:44:05;8.40;99.90
3001;DHT22;1510;51.072;6.678;2023-04-25T07:46:33;8.50;99.90
3001;DHT22;1510;51.072;6.678;2023-04-25T07:49:00;8.60;99.90
3001;DHT22;1510;51.072;6.678;2023-04-25T07:51:27;8.60;99.90
3001;DHT22;1510;51.072;6.678;2023-04-25T07:53:59;8.60;99.90
3001;DHT22;1510;51.072;6.678;2023-04-25T07:56:28;8.80;99.90
3001;DHT22;1510;51.072;6.678;2023-04-25T07:58:55;8.70;99.90
3001;DHT22;1510;51.072;6.678;2023-04-25T08:01:22;8.90;99.90
3001;DHT22;1510;51.072;6.678;2023-04-25T08:03:48;9.20;99.90
3001;DHT22;1510;51.072;6.678;2023-04-25T08:06:15;9.20;98.20
3001;DHT22;1510;51.072;6.678;2023-04-25T08:08:43;9.30;99.00
3001;DHT22;1510;51.072;6.678;2023-04-25T08:11:12;9.40;97.00
3001;DHT22;1510;51.072;6.678;2023-04-25T08:13:40;9.80;97.30
3001;DHT22;1510;51.072;6.678;2023-04-25T08:16:07;9.90;95.70
3001;DHT22;1510;51.072;6.678;2023-04-25T08:18:33;9.80;93.40
3001;DHT22;1510;51.072;6.678;2023-04-25T08:21:00;9.70;93.80
3001;DHT22;1510;51.072;6.678;2023-04-25T08:23:27;9.70;94.80
3001;DHT22;1510;51.072;6.678;2023-04-25T08:25:54;9.50;93.00
3001;DHT22;1510;51.072;6.678;2023-04-25T08:28:21;9.40;93.70
3001;DHT22;1510;51.072;6.678;2023-04-25T08:30:49;9.60;94.00
3001;DHT22;1510;51.072;6.678;2023-04-25T08:33:16;9.70;93.30
3001;DHT22;1510;51.072;6.678;2023-04-25T08:35:44;9.80;91.30
3001;DHT22;1510;51.072;6.678;2023-04-25T08:38:11;9.70;91.30
3001;DHT22;1510;51.072;6.678;2023-04-25T08:40:39;9.70;91.30
3001;DHT22;1510;51.072;6.678;2023-04-25T08:43:06;9.60;93.50
3001;DHT22;1510;51.072;6.678;2023-04-25T08:45:39;9.60;91.20
3001;DHT22;1510;51.072;6.678;2023-04-25T08:48:11;9.80;91.30
3001;DHT22;1510;51.072;6.678;2023-04-25T08:50:39;10.20;93.30
3001;DHT22;1510;51.072;6.678;2023-04-25T08:53:09;10.20;88.50
3001;DHT22;1510;51.072;6.678;2023-04-25T08:55:41;10.20;86.30
3001;DHT22;1510;51.072;6.678;2023-04-25T08:58:09;10.10;85.70
3001;DHT22;1510;51.072;6.678;2023-04-25T09:00:37;10.30;84.90
3001;DHT22;1510;51.072;6.678;2023-04-25T09:03:05;10.80;80.50
3001;DHT22;1510;51.072;6.678;2023-04-25T09:05:34;10.90;80.80
3001;DHT22;1510;51.072;6.678;2023-04-25T09:08:01;11.50;79.80
3001;DHT22;1510;51.072;6.678;2023-04-25T09:10:29;11.50;78.30
3001;DHT22;1510;51.072;6.678;2023-04-25T09:13:03;11.20;74.40
3001;DHT22;1510;51.072;6.678;2023-04-25T09:15:31;11.20;79.00
3001;DHT22;1510;51.072;6.678;2023-04-25T09:23:16;10.70;79.00
3001;DHT22;1510;51.072;6.678;2023-04-25T09:25:48;10.00;86.00
3001;DHT22;1510;51.072;6.678;2023-04-25T09:28:16;9.80;85.50
3001;DHT22;1510;51.072;6.678;2023-04-25T09:30:46;9.60;85.30
3001;DHT22;1510;51.072;6.678;2023-04-25T09:33:12;9.50;91.60
3001;DHT22;1510;51.072;6.678;2023-04-25T09:35:40;9.30;89.10
3001;DHT22;1510;51.072;6.678;2023-04-25T09:38:10;9.30;91.10
3001;DHT22;1510;51.072;6.678;2023-04-25T09:40:42;9.40;91.10
3001;DHT22;1510;51.072;6.678;2023-04-25T09:43:10;9.50;91.20
3001;DHT22;1510;51.072;6.678;2023-04-25T09:45:41;9.40;89.10
3001;DHT22;1510;51.072;6.678;2023-04-25T09:48:11;9.50;89.50
3001;DHT22;1510;51.072;6.678;2023-04-25T09:50:39;9.50;88.10
3001;DHT22;1510;51.072;6.678;2023-04-25T09:53:08;10.10;84.30
3001;DHT22;1510;51.072;6.678;2023-04-25T09:55:35;10.50;82.50
3001;DHT22;1510;51.072;6.678;2023-04-25T09:58:05;11.20;78.00
3001;DHT22;1510;51.072;6.678;2023-04-25T10:00:33;11.50;78.30
3001;DHT22;1510;51.072;6.678;2023-04-25T10:03:01;11.70;72.00
3001;DHT22;1510;51.072;6.678;2023-04-25T10:05:32;12.10;73.60
3001;DHT22;1510;51.072;6.678;2023-04-25T10:08:02;12.40;71.30
3001;DHT22;1510;51.072;6.678;2023-04-25T10:10:30;11.70;70.60
3001;DHT22;1510;51.072;6.678;2023-04-25T10:13:04;10.60;81.40
3001;DHT22;1510;51.072;6.678;2023-04-25T10:15:34;9.40;93.70
3001;DHT22;1510;51.072;6.678;2023-04-25T10:18:03;9.10;96.00
3001;DHT22;1510;51.072;6.678;2023-04-25T10:20:30;9.00;97.00
3001;DHT22;1510;51.072;6.678;2023-04-25T10:23:03;9.00;96.00
3001;DHT22;1510;51.072;6.678;2023-04-25T10:25:33;9.00;90.60
3001;DHT22;1510;51.072;6.678;2023-04-25T10:28:00;9.10;92.10
3001;DHT22;1510;51.072;6.678;2023-04-25T10:30:29;9.10;90.20
3001;DHT22;1510;51.072;6.678;2023-04-25T10:32:56;9.30;91.10
3001;DHT22;1510;51.072;6.678;2023-04-25T10:35:27;9.30;91.10
3001;DHT22;1510;51.072;6.678;2023-04-25T10:37:59;9.50;86.90
3001;DHT22;1510;51.072;6.678;2023-04-25T10:40:26;9.80;88.20
3001;DHT22;1510;51.072;6.678;2023-04-25T10:42:53;9.90;85.50
3001;DHT22;1510;51.072;6.678;2023-04-25T10:45:22;10.30;82.60
3001;DHT22;1510;51.072;6.678;2023-04-25T10:47:50;10.60;86.50
3001;DHT22;1510;51.072;6.678;2023-04-25T10:50:17;10.60;83.80
3001;DHT22;1510;51.072;6.678;2023-04-25T10:52:44;10.80;85.00
3001;DHT22;1510;51.072;6.678;2023-04-25T10:55:11;11.00;70.00
3001;DHT22;1510;51.072;6.678;2023-04-25T10:57:39;11.30;71.90
3001;DHT22;1510;51.072;6.678;2023-04-25T11:00:13;11.40;64.30
3001;DHT22;1510;51.072;6.678;2023-04-25T11:02:43;11.50;72.50
3001;DHT22;1510;51.072;6.678;2023-04-25T11:05:20;11.60;74.10
3001;DHT22;1510;51.072;6.678;2023-04-25T11:07:50;11.40;62.20
3001;DHT22;1510;51.072;6.678;2023-04-25T11:10:18;11.20;63.10
3001;DHT22;1510;51.072;6.678;2023-04-25T11:12:46;11.40;62.20
3001;DHT22;1510;51.072;6.678;2023-04-25T11:15:13;11.70;64.80
3001;DHT22;1510;51.072;6.678;2023-04-25T11:17:40;12.10;67.60
3001;DHT22;1510;51.072;6.678;2023-04-25T11:20:09;12.80;68.40
3001;DHT22;1510;51.072;6.678;2023-04-25T11:22:39;13.10;64.20
3001;DHT22;1510;51.072;6.678;2023-04-25T11:25:08;13.00;44.00
3001;DHT22;1510;51.072;6.678;2023-04-25T11:27:38;12.70;53.20
3001;DHT22;1510;51.072;6.678;2023-04-25T11:30:11;13.30;53.60
3001;DHT22;1510;51.072;6.678;2023-04-25T11:32:40;14.60;50.90
3001;DHT22;1510;51.072;6.678;2023-04-25T11:35:08;14.40;53.20
3001;DHT22;1510;51.072;6.678;2023-04-25T11:37:35;14.90;48.50
3001;DHT22;1510;51.072;6.678;2023-04-25T11:40:05;15.80;39.30
3001;DHT22;1510;51.072;6.678;2023-04-25T11:42:35;14.90;30.50
3001;DHT22;1510;51.072;6.678;2023-04-25T11:45:04;14.00;38.50
3001;DHT22;1510;51.072;6.678;2023-04-25T11:47:32;13.40;47.10
3001;DHT22;1510;51.072;6.678;2023-04-25T11:49:59;13.10;44.10
3001;DHT22;1510;51.072;6.678;2023-04-25T11:52:36;12.70;39.10
3001;DHT22;1510;51.072;6.678;2023-04-25T11:55:06;12.40;47.70
3001;DHT22;1510;51.072;6.678;2023-04-25T11:57:33;11.90;45.70
3001;DHT22;1510;51.072;6.678;2023-04-25T12:00:08;11.80;54.50
3001;DHT22;1510;51.072;6.678;2023-04-25T12:02:36;11.50;50.90
3001;DHT22;1510;51.072;6.678;2023-04-25T12:05:06;11.30;46.60
3001;DHT22;1510;51.072;6.678;2023-04-25T12:07:33;11.30;52.40
3001;DHT22;1510;51.072;6.678;2023-04-25T12:10:05;11.00;59.70
3001;DHT22;1510;51.072;6.678;2023-04-25T12:12:33;10.70;61.60
3001;DHT22;1510;51.072;6.678;2023-04-25T12:15:09;10.50;63.60
3001;DHT22;1510;51.072;6.678;2023-04-25T12:17:37;10.40;65.40
3001;DHT22;1510;51.072;6.678;2023-04-25T12:20:07;10.30;61.30
3001;DHT22;1510;51.072;6.678;2023-04-25T12:22:34;10.50;64.30
3001;DHT22;1510;51.072;6.678;2023-04-25T12:25:02;10.70;66.30
3001;DHT22;1510;51.072;6.678;2023-04-25T12:27:31;11.30;69.30
3001;DHT22;1510;51.072;6.678;2023-04-25T12:29:59;11.50;62.30
3001;DHT22;1510;51.072;6.678;2023-04-25T12:32:27;11.60;58.40
3001;DHT22;1510;51.072;6.678;2023-04-25T12:34:54;12.70;55.10
3001;DHT22;1510;51.072;6.678;2023-04-25T12:37:21;13.20;55.50
3001;DHT22;1510;51.072;6.678;2023-04-25T12:39:48;12.90;49.50
3001;DHT22;1510;51.072;6.678;2023-04-25T12:42:15;13.00;53.30
3001;DHT22;1510;51.072;6.678;2023-04-25T12:44:43;13.30;50.10
3001;DHT22;1510;51.072;6.678;2023-04-25T12:47:10;14.00;49.60
3001;DHT22;1510;51.072;6.678;2023-04-25T12:49:37;13.70;41.50
3001;DHT22;1510;51.072;6.678;2023-04-25T12:52:04;14.40;37.50
3001;DHT22;1510;51.072;6.678;2023-04-25T12:54:31;14.60;37.90
3001;DHT22;1510;51.072;6.678;2023-04-25T12:56:57;15.10;35.40
3001;DHT22;1510;51.072;6.678;2023-04-25T12:59:24;14.70;26.80
3001;DHT22;1510;51.072;6.678;2023-04-25T13:01:53;14.70;33.40
3001;DHT22;1510;51.072;6.678;2023-04-25T13:04:20;14.80;30.40
3001;DHT22;1510;51.072;6.678;2023-04-25T13:06:47;14.30;29.00
3001;DHT22;1510;51.072;6.678;2023-04-25T13:09:14;14.20;27.30
3001;DHT22;1510;51.072;6.678;2023-04-25T13:11:41;12.90;26.90
3001;DHT22;1510;51.072;6.678;2023-04-25T13:14:08;12.40;36.00
3001;DHT22;1510;51.072;6.678;2023-04-25T13:16:35;13.00;29.10
3001;DHT22;1510;51.072;6.678;2023-04-25T13:19:03;13.90;33.30
3001;DHT22;1510;51.072;6.678;2023-04-25T13:21:31;13.90;25.80
3001;DHT22;1510;51.072;6.678;2023-04-25T13:23:59;13.30;25.30
3001;DHT22;1510;51.072;6.678;2023-04-25T13:26:26;13.20;30.80
3001;DHT22;1510;51.072;6.678;2023-04-25T13:28:53;14.20;25.40
3001;DHT22;1510;51.072;6.678;2023-04-25T13:31:23;14.20;24.20
3001;DHT22;1510;51.072;6.678;2023-04-25T13:33:50;13.40;29.40
3001;DHT22;1510;51.072;6.678;2023-04-25T13:36:18;13.00;37.80
3001;DHT22;1510;51.072;6.678;2023-04-25T13:38:46;12.10;37.00
3001;DHT22;1510;51.072;6.678;2023-04-25T13:41:14;12.10;36.10
3001;DHT22;1510;51.072;6.678;2023-04-25T13:43:44;12.60;28.50
3001;DHT22;1510;51.072;6.678;2023-04-25T13:46:12;13.00;26.10
3001;DHT22;1510;51.072;6.678;2023-04-25T13:48:42;13.20;25.20
3001;DHT22;1510;51.072;6.678;2023-04-25T13:51:13;13.70;25.50
3001;DHT22;1510;51.072;6.678;2023-04-25T13:53:42;13.30;29.30
3001;DHT22;1510;51.072;6.678;2023-04-25T13:56:09;13.20;29.40
3001;DHT22;1510;51.072;6.678;2023-04-25T13:58:39;12.40;32.70
3001;DHT22;1510;51.072;6.678;2023-04-25T14:01:06;11.40;40.40
3001;DHT22;1510;51.072;6.678;2023-04-25T14:03:33;10.90;44.70
3001;DHT22;1510;51.072;6.678;2023-04-25T14:05:59;10.70;47.50
3001;DHT22;1510;51.072;6.678;2023-04-25T14:08:26;10.50;50.90
3001;DHT22;1510;51.072;6.678;2023-04-25T14:10:55;10.50;53.00
3001;DHT22;1510;51.072;6.678;2023-04-25T14:13:22;10.30;51.50
3001;DHT22;1510;51.072;6.678;2023-04-25T14:15:50;10.20;48.70
3001;DHT22;1510;51.072;6.678;2023-04-25T14:18:17;10.20;53.50
3001;DHT22;1510;51.072;6.678;2023-04-25T14:20:45;10.30;52.80
3001;DHT22;1510;51.072;6.678;2023-04-25T14:23:16;10.30;59.20
3001;DHT22;1510;51.072;6.678;2023-04-25T14:25:43;10.30;58.00
3001;DHT22;1510;51.072;6.678;2023-04-25T14:28:20;10.50;55.50
3001;DHT22;1510;51.072;6.678;2023-04-25T14:30:48;11.20;53.50
3001;DHT22;1510;51.072;6.678;2023-04-25T14:33:15;11.60;53.80
3001;DHT22;1510;51.072;6.678;2023-04-25T14:35:42;12.50;46.20
3001;DHT22;1510;51.072;6.678;2023-04-25T14:38:10;12.60;42.10
3001;DHT22;1510;51.072;6.678;2023-04-25T14:40:37;13.20;38.00
3001;DHT22;1510;51.072;6.678;2023-04-25T14:43:03;14.40;39.10
3001;DHT22;1510;51.072;6.678;2023-04-25T14:45:33;14.40;30.70
3001;DHT22;1510;51.072;6.678;2023-04-25T14:48:00;14.80;30.00
3001;DHT22;1510;51.072;6.678;2023-04-25T14:50:27;14.90;29.70
3001;DHT22;1510;51.072;6.678;2023-04-25T14:52:54;14.30;25.30
3001;DHT22;1510;51.072;6.678;2023-04-25T14:55:24;14.10;33.00
3001;DHT22;1510;51.072;6.678;2023-04-25T14:57:51;13.80;29.70
3001;DHT22;1510;51.072;6.678;2023-04-25T15:00:19;14.10;33.40
3001;DHT22;1510;51.072;6.678;2023-04-25T15:02:49;13.70;34.40
3001;DHT22;1510;51.072;6.678;2023-04-25T15:05:16;13.40;39.40
3001;DHT22;1510;51.072;6.678;2023-04-25T15:07:43;13.70;43.00
3001;DHT22;1510;51.072;6.678;2023-04-25T15:10:10;12.70;43.80
3001;DHT22;1510;51.072;6.678;2023-04-25T15:12:39;12.30;50.10
3001;DHT22;1510;51.072;6.678;2023-04-25T15:15:08;12.00;49.40
3001;DHT22;1510;51.072;6.678;2023-04-25T15:17:37;11.40;47.10
3001;DHT22;1510;51.072;6.678;2023-04-25T15:20:07;10.90;54.90
3001;DHT22;1510;51.072;6.678;2023-04-25T15:22:35;10.60;50.30
3001;DHT22;1510;51.072;6.678;2023-04-25T15:25:02;10.40;44.30
3001;DHT22;1510;51.072;6.678;2023-04-25T15:27:29;10.20;44.10
3001;DHT22;1510;51.072;6.678;2023-04-25T15:29:57;10.20;49.00
3001;DHT22;1510;51.072;6.678;2023-04-25T15:32:24;10.30;54.90
3001;DHT22;1510;51.072;6.678;2023-04-25T15:34:51;10.30;56.00
3001;DHT22;1510;51.072;6.678;2023-04-25T15:37:19;10.50;61.40
3001;DHT22;1510;51.072;6.678;2023-04-25T15:39:46;10.70;55.10
3001;DHT22;1510;51.072;6.678;2023-04-25T15:42:13;11.40;46.70
3001;DHT22;1510;51.072;6.678;2023-04-25T15:44:43;12.40;44.80
3001;DHT22;1510;51.072;6.678;2023-04-25T15:47:11;12.70;39.50
3001;DHT22;1510;51.072;6.678;2023-04-25T15:49:37;12.50;40.60
3001;DHT22;1510;51.072;6.678;2023-04-25T15:52:04;11.90;43.00
3001;DHT22;1510;51.072;6.678;2023-04-25T15:54:33;11.50;43.00
3001;DHT22;1510;51.072;6.678;2023-04-25T15:56:59;11.30;49.90
3001;DHT22;1510;51.072;6.678;2023-04-25T15:59:26;12.00;49.60
3001;DHT22;1510;51.072;6.678;2023-04-25T16:01:53;12.70;46.40
3001;DHT22;1510;51.072;6.678;2023-04-25T16:04:21;13.00;37.80
3001;DHT22;1510;51.072;6.678;2023-04-25T16:06:56;13.30;47.00
3001;DHT22;1510;51.072;6.678;2023-04-25T16:09:23;13.40;38.20
3001;DHT22;1510;51.072;6.678;2023-04-25T16:11:51;13.60;37.10
3001;DHT22;1510;51.072;6.678;2023-04-25T16:14:21;13.40;32.50
3001;DHT22;1510;51.072;6.678;2023-04-25T16:16:48;13.30;34.00
3001;DHT22;1510;51.072;6.678;2023-04-25T16:19:15;12.90;37.80
3001;DHT22;1510;51.072;6.678;2023-04-25T16:21:42;12.20;37.10